Vliegveldwaarnemingen Nederland - (AUTO) METAR

Luchtvaartmeteorologische informatie voor operationeel gebruik en vluchtvoorbereiding is beschikbaar op www.luchtvaartmeteo.nl.

ZCZC
SA191425 EHKD     DE KOOY/DE KOOY   NLD   1 m.
METAR EHKD 191425Z AUTO 23020KT 9999 FEW016 BKN020 OVC023 20/16 Q1017

WHT 23020G30KT 9999 FEW012 SCT022 BKN028 TEMPO FEW008 SCT012 BKN020=

ZCZC
SA191425 EHFD     F3-FB-1   NLD   50 m.
METAR EHFD 191425Z AUTO 23026KT //// // FEW003/// SCT005/// BKN011///
17/17 Q1012 RE// W///H///=

ZCZC
SA191425 EHAM     AMSTERDAM/SCHIPHOL   NLD   -3 m.
METAR EHAM 191425Z 24014KT 220V280 9999 OVC028 22/15 Q1018 NOSIG=

ZCZC
SA191425 EHVL     VLIELAND   NLD   10 m.
METAR EHVL 191425Z AUTO 23027KT 9999 FEW012 BKN015 OVC018 19/16 Q1016
 WHT=

ZCZC
SA191425 EHJR     K13-A   NLD   37 m.
METAR EHJR 191425Z AUTO 22023KT //// // ///////// 19/16 Q1015 RE//
W18/H17=

ZCZC
SA191425 EHLW     LEEUWARDEN/LEEUWARDEN   NLD   1 m.
METAR EHLW 191425Z AUTO 23013KT 200V260 9999 BKN027 OVC030 20/16
Q1017
BLU 28009KT 9999 FEW036=

ZCZC
SA191425 EHDL     ARNHEM/DEELEN   NLD   48 m.
METAR EHDL 191425Z AUTO 22012KT 140V270 9999 BKN032 23/15 Q1018 BLU=

ZCZC
SA191425 EHGG     GRONINGEN/EELDE   NLD   5 m.
METAR EHGG 191425Z AUTO 21012KT 180V240 9999 OVC022 21/16 Q1017
NOSIG=

ZCZC
SA191425 EHSC     LICHTEILAND GOEREE   NLD   22 m.
METAR EHSC 191425Z AUTO 25028KT 9999 ///////// 20/16 Q1018 W21/H18=

ZCZC
SA191425 EHSA     EURO PLATFORM   NLD   19 m.
METAR EHSA 191425Z AUTO 21029KT //// // ///////// 19/17 Q1018 RE//
W19/H22=

ZCZC
SA191425 EHWO     WOENSDRECHT/WOENSDRECHT   NLD   19 m.
METAR EHWO 191425Z AUTO 22012KT 180V260 9999 SCT028 23/15 Q1019 BLU=

ZCZC
SA191425 EHRD     ROTTERDAM/THE HAGUE AIRPORT   NLD   -5 m.
METAR EHRD 191425Z AUTO 21014KT 190V250 9999 OVC027 22/16 Q1018
NOSIG=

ZCZC
SA191425 EHGR     GILZE-RIJEN/GILZE-RIJEN   NLD   14 m.
METAR EHGR 191425Z AUTO 23010KT 180V250 9999 BKN031 24/15 Q1019 BLU=

ZCZC
SA191425 EHEH     EINDHOVEN/EINDHOVEN   NLD   22 m.
METAR EHEH 191425Z AUTO 22010KT 200V310 9999 FEW031 24/15 Q1019
BLU 22012KT 9999 SCT030=

ZCZC
SA191425 EHVK     VOLKEL/VOLKEL   NLD   21 m.
METAR EHVK 191425Z AUTO 23013KT 210V280 9999 FEW032 24/15 Q1018 BLU=

ZCZC
SA191425 EHBK     MAASTRICHT/MAASTRICHT-AACHEN   NLD   114 m.
METAR EHBK 191425Z AUTO 23011KT 200V280 9999 NCD 25/15 Q1019 NOSIG=

ZCZC
SA191425 EHFZ     F16-A   NLD   43 m.
METAR EHFZ 191425Z AUTO 22023KT 9999 BKN019 BKN022 19/16 Q1014
W///H///=

ZCZC
SA191425 EHKV     K14-FA-1C   NLD   41 m.
METAR EHKV 191425Z AUTO 21023KT 9999 FEW026 SCT030 OVC034 19/17 Q1015
W///H///=

ZCZC
SA191425 EHMG     L9-FF-1   NLD   44 m.
METAR EHMG 191425Z AUTO 23032KT 4000 BR FEW003 SCT006 18/17 Q1016
W///H///=

ZCZC
SA191425 EHMA     AWG-1   NLD   40 m.
METAR EHMA 191425Z AUTO 21018KT 9999 FEW009 SCT015 BKN020 20/16 Q1016
REDZ W///H///=

ZCZC
SA191425 EHDV     D15-FA-1   NLD   42 m.
METAR EHDV 191425Z AUTO 24020KT 9999 SCT033/// BKN038/// OVC044///
18/16 Q1013 W///H///=

ZCZC
SA191425 EHAK     A12-CPP   NLD   48 m.
METAR EHAK 191425Z AUTO 23024KT 5000 BR FEW002/// SCT003/// BKN004///
17/17 Q1011 W///H///=

ZCZC
SA191425 EHQE     HOORN-A   NLD   50 m.
METAR EHQE 191425Z AUTO 18028KT 9999 FEW009 SCT010 BKN016 19/17 Q1016
W///H///=

ZCZC
SA191425 EHJA     J6-A   NLD   45 m.
METAR EHJA 191425Z AUTO 22024KT 9999 SCT019/// BKN022/// BKN029///
19/16 Q1014 W///H///=

ZCZC
SA191425 EHPG     P11-B   NLD   41 m.
METAR EHPG 191425Z AUTO 21030KT 9999 FEW008 SCT009 BKN010 19/17 Q1016
W///H///=

ZCZC
SA191425 EHHW     BUITENGAATS/BG-OHVS2      42 m.
METAR EHHW 191425Z AUTO 25024KT //// // FEW005/// SCT009/// BKN018///
19/17 Q1016 RE// W///H///=

ZCZC
SA191425 EHFS     VLISSINGEN AWS   NLD   8 m.
METAR EHFS 191425Z AUTO 27016KT 9999 OVC027/// 21/17 Q1018 W///H///=

19/08/2018 16.45 uur LT